createdAt,value
2022-10-04T00:03:44.013Z,7.08
2022-10-04T00:08:52.068Z,6.94
2022-10-04T00:13:58.424Z,6.85
2022-10-04T00:19:19.688Z,6.74
2022-10-04T00:24:24.882Z,6.64
2022-10-04T00:29:33.211Z,6.42
2022-10-04T00:34:49.604Z,6.45
2022-10-04T00:40:02.197Z,6.34
2022-10-04T00:45:13.636Z,6.16
2022-10-04T00:50:23.044Z,6.08
2022-10-04T00:55:34.586Z,6.10
2022-10-04T01:00:38.805Z,6.01
2022-10-04T01:05:47.612Z,5.77
2022-10-04T01:10:55.607Z,5.73
2022-10-04T01:16:04.719Z,5.69
2022-10-04T01:21:24.908Z,5.67
2022-10-04T01:26:44.466Z,5.56
2022-10-04T01:31:49.816Z,5.49
2022-10-04T01:36:55.612Z,5.43
2022-10-04T01:42:05.931Z,5.24
2022-10-04T01:47:13.596Z,5.38
2022-10-04T01:52:22.614Z,5.28
2022-10-04T01:57:35.091Z,5.31
2022-10-04T02:02:44.967Z,5.09
2022-10-04T02:07:50.077Z,5.15
2022-10-04T02:12:57.193Z,5.30
2022-10-04T02:18:01.115Z,5.28
2022-10-04T02:23:04.647Z,5.35
2022-10-04T02:28:13.918Z,5.32
2022-10-04T02:33:17.533Z,5.32
2022-10-04T02:38:24.504Z,5.49
2022-10-04T02:43:38.783Z,5.59
2022-10-04T02:48:49.012Z,5.40
2022-10-04T02:54:03.626Z,5.44
2022-10-04T02:59:09.287Z,5.55
2022-10-04T03:04:15.837Z,5.80
2022-10-04T03:09:26.124Z,5.93
2022-10-04T03:14:34.426Z,6.01
2022-10-04T03:19:38.673Z,6.04
2022-10-04T03:24:47.734Z,6.03
2022-10-04T03:29:56.858Z,6.23
2022-10-04T03:35:05.382Z,6.01
2022-10-04T03:40:10.987Z,6.14
2022-10-04T03:45:19.964Z,6.28
2022-10-04T03:50:27.408Z,6.27
2022-10-04T03:55:35.090Z,6.36
2022-10-04T04:00:45.218Z,6.38
2022-10-04T04:05:53.128Z,6.44
2022-10-04T04:11:00.056Z,6.37
2022-10-04T04:16:05.768Z,6.41
2022-10-04T04:21:10.706Z,6.61
2022-10-04T04:26:21.519Z,6.72
2022-10-04T04:31:33.013Z,6.81
2022-10-04T04:36:42.196Z,6.87
2022-10-04T04:41:50.330Z,6.91
2022-10-04T04:46:56.968Z,6.87
2022-10-04T04:52:00.858Z,6.87
2022-10-04T04:57:05.818Z,6.88
2022-10-04T05:02:29.275Z,6.94
2022-10-04T05:07:32.825Z,7.00
2022-10-04T05:12:36.448Z,7.04
2022-10-04T05:17:41.322Z,7.11
2022-10-04T05:22:49.148Z,7.02
2022-10-04T05:27:52.847Z,7.19
2022-10-04T05:33:02.864Z,7.30
2022-10-04T05:38:12.941Z,7.42
2022-10-04T05:43:30.270Z,7.39
2022-10-04T05:48:36.446Z,7.53
2022-10-04T05:53:41.045Z,7.65
2022-10-04T05:58:59.164Z,7.75
2022-10-04T06:04:24.804Z,7.84
2022-10-04T06:09:52.322Z,7.64
2022-10-04T06:15:09.204Z,7.83
2022-10-04T06:20:52.623Z,7.73
2022-10-04T06:25:58.323Z,7.86
2022-10-04T06:31:27.001Z,8.27
2022-10-04T06:37:03.642Z,8.45
2022-10-04T06:42:27.511Z,8.57
2022-10-04T06:47:54.660Z,8.69
2022-10-04T06:53:28.362Z,9.06
2022-10-04T06:59:13.857Z,9.37
2022-10-04T07:04:25.434Z,9.75
2022-10-04T07:09:30.927Z,10.14
2022-10-04T07:14:38.767Z,10.27
2022-10-04T07:19:46.508Z,10.16
2022-10-04T07:25:02.674Z,9.93
2022-10-04T07:30:09.411Z,10.01
2022-10-04T07:35:33.843Z,10.35
2022-10-04T07:40:42.523Z,10.91
2022-10-04T07:45:46.137Z,11.21
2022-10-04T07:51:02.222Z,11.16
2022-10-04T07:56:12.457Z,11.51
2022-10-04T08:01:26.704Z,11.62
2022-10-04T08:06:36.796Z,11.33
2022-10-04T08:11:52.090Z,11.68
2022-10-04T08:17:15.444Z,11.90
2022-10-04T08:22:30.182Z,12.49
2022-10-04T08:28:05.868Z,12.46
2022-10-04T08:33:20.772Z,12.87
2022-10-04T08:38:43.120Z,13.29
2022-10-04T08:44:18.535Z,13.40
2022-10-04T08:50:00.641Z,13.90
2022-10-04T08:55:35.075Z,14.04
2022-10-04T09:00:56.847Z,14.60
2022-10-04T09:06:09.957Z,14.15
2022-10-04T09:11:45.661Z,14.58
2022-10-04T09:17:03.830Z,14.88
2022-10-04T09:22:20.286Z,15.17
2022-10-04T09:27:54.602Z,15.67
2022-10-04T09:33:26.702Z,15.73
2022-10-04T09:39:18.327Z,15.68
2022-10-04T09:45:04.245Z,16.08
2022-10-04T09:50:35.896Z,16.58
2022-10-04T09:55:55.330Z,16.86
2022-10-04T10:01:08.995Z,16.98
2022-10-04T10:06:41.703Z,16.83
2022-10-04T10:12:16.084Z,16.62
2022-10-04T10:17:37.516Z,16.87
2022-10-04T10:23:30.428Z,16.64
2022-10-04T10:28:52.667Z,16.22
2022-10-04T10:34:16.062Z,16.50
2022-10-04T10:39:44.272Z,16.66
2022-10-04T10:45:14.454Z,16.76
2022-10-04T10:50:59.954Z,16.69
2022-10-04T10:56:31.512Z,16.64
2022-10-04T11:02:10.365Z,16.55
2022-10-04T11:07:43.156Z,16.42
2022-10-04T11:13:21.395Z,16.88
2022-10-04T11:18:55.849Z,17.04
2022-10-04T11:24:30.004Z,16.98
2022-10-04T11:29:55.864Z,17.23
2022-10-04T11:35:36.965Z,17.54
2022-10-04T11:40:53.675Z,17.32
2022-10-04T11:46:19.101Z,17.59
2022-10-04T11:52:02.492Z,17.02
2022-10-04T11:57:17.285Z,17.26
2022-10-04T12:02:47.370Z,17.49
2022-10-04T12:08:03.237Z,17.51
2022-10-04T12:13:34.035Z,17.55
2022-10-04T12:19:16.612Z,17.55
2022-10-04T12:24:41.412Z,17.57
2022-10-04T12:30:22.649Z,17.20
2022-10-04T12:35:35.876Z,17.31
2022-10-04T12:40:48.601Z,17.40
2022-10-04T12:46:03.969Z,17.32
2022-10-04T12:51:28.484Z,17.54
2022-10-04T12:56:48.536Z,17.54
2022-10-04T13:02:02.011Z,17.45
2022-10-04T13:07:29.493Z,17.45
2022-10-04T13:12:45.418Z,17.36
2022-10-04T13:17:57.014Z,17.47
2022-10-04T13:23:07.912Z,17.43
2022-10-04T13:28:23.453Z,17.29
2022-10-04T13:33:35.944Z,17.38
2022-10-04T13:39:16.822Z,17.62
2022-10-04T13:44:45.178Z,17.31
2022-10-04T13:50:06.406Z,17.47
2022-10-04T13:55:43.132Z,17.35
2022-10-04T14:01:07.594Z,17.42
2022-10-04T14:06:39.545Z,17.19
2022-10-04T14:12:15.760Z,17.19
2022-10-04T14:17:51.086Z,17.04
2022-10-04T14:23:34.468Z,16.94
2022-10-04T14:29:17.013Z,16.66
2022-10-04T14:34:47.438Z,16.78
2022-10-04T14:40:21.129Z,16.72
2022-10-04T14:45:38.347Z,16.02
2022-10-04T14:50:58.250Z,16.37
2022-10-04T14:56:38.006Z,16.35
2022-10-04T15:02:07.406Z,16.07
2022-10-04T15:07:22.628Z,16.26
2022-10-04T15:18:28.093Z,16.32
2022-10-04T15:23:38.091Z,16.14
2022-10-04T15:29:02.164Z,15.92
2022-10-04T15:34:25.277Z,15.79
2022-10-04T15:40:01.907Z,15.53
2022-10-04T15:45:27.812Z,15.07
2022-10-04T15:50:36.601Z,14.99
2022-10-04T15:55:59.235Z,14.37
2022-10-04T16:01:24.398Z,13.83
2022-10-04T16:06:35.330Z,13.86
2022-10-04T16:11:51.618Z,13.52
2022-10-04T16:17:26.895Z,13.23
2022-10-04T16:22:33.241Z,12.87
2022-10-04T16:28:06.367Z,12.65
2022-10-04T16:33:29.852Z,12.08
2022-10-04T16:39:04.592Z,12.26
2022-10-04T16:44:24.952Z,11.83
2022-10-04T16:49:40.234Z,11.83
2022-10-04T16:55:04.886Z,11.60
2022-10-04T17:00:33.751Z,11.40
2022-10-04T17:05:48.204Z,11.49
2022-10-04T17:11:28.197Z,11.28
2022-10-04T17:16:38.966Z,11.03
2022-10-04T17:21:55.325Z,10.88
2022-10-04T17:27:19.189Z,10.93
2022-10-04T17:32:29.781Z,10.93
2022-10-04T17:37:41.817Z,10.89
2022-10-04T17:42:53.365Z,10.87
2022-10-04T17:48:22.709Z,10.85
2022-10-04T17:53:47.336Z,10.80
2022-10-04T17:58:56.602Z,10.70
2022-10-04T18:04:14.317Z,10.85
2022-10-04T18:09:24.984Z,10.81
2022-10-04T18:14:59.158Z,10.74
2022-10-04T18:20:29.549Z,10.57
2022-10-04T18:25:34.343Z,10.58
2022-10-04T18:30:59.420Z,10.31
2022-10-04T18:36:15.940Z,10.29
2022-10-04T18:41:45.079Z,10.19
2022-10-04T18:46:59.914Z,10.08
2022-10-04T18:52:22.834Z,10.09
2022-10-04T18:57:54.215Z,10.07
2022-10-04T19:03:09.333Z,10.11
2022-10-04T19:08:22.142Z,9.98
2022-10-04T19:13:42.156Z,9.82
2022-10-04T19:18:57.611Z,9.56
2022-10-04T19:24:18.285Z,9.60
2022-10-04T19:29:33.313Z,9.51
2022-10-04T19:34:55.229Z,9.65
2022-10-04T19:40:11.888Z,9.86
2022-10-04T19:45:36.385Z,10.37
2022-10-04T19:50:49.185Z,10.53
2022-10-04T19:55:58.296Z,10.21
2022-10-04T20:01:02.642Z,9.85
2022-10-04T20:06:09.923Z,9.70
2022-10-04T20:11:20.562Z,9.48
2022-10-04T20:16:57.567Z,9.38
2022-10-04T20:22:31.440Z,9.29
2022-10-04T20:28:03.785Z,9.31
2022-10-04T20:33:07.166Z,9.34
2022-10-04T20:38:32.305Z,9.34
2022-10-04T20:43:54.351Z,9.27
2022-10-04T20:48:57.740Z,8.93
2022-10-04T20:54:03.865Z,8.93
2022-10-04T20:59:15.291Z,8.74
2022-10-04T21:04:29.776Z,8.73
2022-10-04T21:09:36.195Z,8.59
2022-10-04T21:14:39.555Z,8.54
2022-10-04T21:19:46.466Z,8.34
2022-10-04T21:24:57.198Z,8.48
2022-10-04T21:30:01.661Z,8.45
2022-10-04T21:35:06.948Z,8.21
2022-10-04T21:40:14.061Z,8.19
2022-10-04T21:45:17.343Z,8.09
2022-10-04T21:50:20.919Z,7.98
2022-10-04T21:55:25.721Z,7.90
2022-10-04T22:00:29.292Z,7.86
2022-10-04T22:05:32.854Z,7.59
2022-10-04T22:10:37.493Z,7.76
2022-10-04T22:15:40.838Z,7.53
2022-10-04T22:20:44.387Z,7.59
2022-10-04T22:25:49.351Z,7.37
2022-10-04T22:30:55.750Z,7.47
2022-10-04T22:36:06.566Z,7.42
2022-10-04T22:41:13.887Z,7.27
2022-10-04T22:46:20.702Z,7.24
2022-10-04T22:51:24.263Z,7.21
2022-10-04T22:56:29.018Z,7.14
2022-10-04T23:01:33.035Z,7.08
2022-10-04T23:06:36.554Z,6.95
2022-10-04T23:11:41.584Z,6.89
2022-10-04T23:16:45.467Z,6.99
2022-10-04T23:21:50.253Z,6.91
2022-10-04T23:26:57.148Z,6.91
2022-10-04T23:32:03.338Z,6.59
2022-10-04T23:37:15.865Z,6.53
2022-10-04T23:42:25.312Z,6.66
2022-10-04T23:47:34.788Z,6.81
2022-10-04T23:52:40.785Z,8.21
2022-10-04T23:57:46.242Z,9.09
